PWSweather.com
Personal Weather Stations
Station Observations
WIKENOS15
47th Ave & 30th St, Kenosha, WI 53144

47th Ave & 30th StKenosha, WI 53144

Lat: 42.612, Lon: -87.866

Elevation: 697

Station Type: Oregon Scientific 100N

Latest ConditionsUpdated 9:45:00 PM CDT Saturday, Oct 25, 2014
Currently Today's Max Today's Min Today's Average
Temperature 50.3°F10.2°C 69.4°F20.8°C 50.3°F10.2°C 59.1°F15.1°C
Dew Point 32.4°F0.2°C 54.7°F12.6°C 31.7°F-0.2°C 44.7°F7.1°C
Winds 1.5 mph NW2.4 kmh NW 4.5 mph WNW7.2 kmh WNW - 1.9 mph 3.1 kmh
Wind Gusts 2.3 mph3.7 kmh 8.2 mph13.2 kmh - -
Humidity 50% 98% 27% 65%
Pressure 29.92 in1013.2 mb 29.92 in1013.2 mb 29.84 in1010.5 mb -
Hour Temp Dew Point Humidity Winds Wind Gusts Pressure Precip Precip Rate Daily Precip Total
09:45 PM 50.3°F10.2°C 32.4°F0.2°C 50% 1.5 mph NW2.4 kmh NW 2.3 mph3.7 kmh 29.92 in1013.2 mb 0.00 in0.0 mm 0.00 in/hr0.0 mm/hr 0.00 in0.0 mm
09:30 PM 50.7°F10.4°C 32.2°F0.1°C 49% 1.8 mph NW2.9 kmh NW 2.3 mph3.7 kmh 29.92 in1013.2 mb 0.00 in0.0 mm 0.00 in/hr0.0 mm/hr 0.00 in0.0 mm
09:15 PM 50.7°F10.4°C 32.7°F0.4°C 50% 1.4 mph NW2.3 kmh NW 2.3 mph3.7 kmh 29.91 in1012.9 mb 0.00 in0.0 mm 0.00 in/hr0.0 mm/hr 0.00 in0.0 mm
09:00 PM 51.5°F10.8°C 33.4°F0.8°C 50% 1.1 mph NW1.8 kmh NW 1.5 mph2.4 kmh 29.91 in1012.9 mb 0.00 in0.0 mm 0.00 in/hr0.0 mm/hr 0.00 in0.0 mm
08:45 PM 52.5°F11.4°C 33.8°F1.0°C 49% 1.2 mph NW1.9 kmh NW 1.5 mph2.4 kmh 29.91 in1012.9 mb 0.00 in0.0 mm 0.00 in/hr0.0 mm/hr 0.00 in0.0 mm
08:30 PM 53.0°F11.7°C 33.3°F0.7°C 47% 1.4 mph NW2.3 kmh NW 2.3 mph3.7 kmh 29.91 in1012.9 mb 0.00 in0.0 mm 0.00 in/hr0.0 mm/hr 0.00 in0.0 mm
08:15 PM 53.1°F11.7°C 33.4°F0.8°C 47% 1.7 mph WNW2.7 kmh WNW 2.3 mph3.7 kmh 29.90 in1012.5 mb 0.00 in0.0 mm 0.00 in/hr0.0 mm/hr 0.00 in0.0 mm
08:00 PM 53.7°F12.1°C 33.4°F0.8°C 46% 1.1 mph NW1.8 kmh NW 1.5 mph2.4 kmh 29.90 in1012.5 mb 0.00 in0.0 mm 0.00 in/hr0.0 mm/hr 0.00 in0.0 mm
07:45 PM 54.7°F12.6°C 32.6°F0.3°C 43% 1.6 mph NW2.6 kmh NW 2.3 mph3.7 kmh 29.89 in1012.2 mb 0.00 in0.0 mm 0.00 in/hr0.0 mm/hr 0.00 in0.0 mm
07:30 PM 56.3°F13.5°C 34.1°F1.2°C 43% 0.9 mph NW1.4 kmh NW 1.5 mph2.4 kmh 29.89 in1012.2 mb 0.00 in0.0 mm 0.00 in/hr0.0 mm/hr 0.00 in0.0 mm
07:15 PM 58.1°F14.5°C 32.6°F0.3°C 38% 1.6 mph NW2.6 kmh NW 3.0 mph4.8 kmh 29.89 in1012.2 mb 0.00 in0.0 mm 0.00 in/hr0.0 mm/hr 0.00 in0.0 mm
07:00 PM 59.1°F15.1°C 32.8°F0.4°C 37% 1.8 mph NW2.9 kmh NW 2.3 mph3.7 kmh 29.88 in1011.9 mb 0.00 in0.0 mm 0.00 in/hr0.0 mm/hr 0.00 in0.0 mm
06:45 PM 59.0°F15.0°C 32.7°F0.4°C 37% 2.5 mph NW4.0 kmh NW 6.0 mph9.7 kmh 29.88 in1011.9 mb 0.00 in0.0 mm 0.00 in/hr0.0 mm/hr 0.00 in0.0 mm
06:30 PM 59.7°F15.4°C 32.7°F0.4°C 36% 2.2 mph NW3.5 kmh NW 3.0 mph4.8 kmh 29.87 in1011.5 mb 0.00 in0.0 mm 0.00 in/hr0.0 mm/hr 0.00 in0.0 mm
06:15 PM 61.2°F16.2°C 34.0°F1.1°C 36% 1.8 mph NW2.9 kmh NW 3.0 mph4.8 kmh 29.87 in1011.5 mb 0.00 in0.0 mm 0.00 in/hr0.0 mm/hr 0.00 in0.0 mm
06:00 PM 62.2°F16.8°C 33.4°F0.8°C 34% 2.5 mph WNW4.0 kmh WNW 3.7 mph6.0 kmh 29.86 in1011.2 mb 0.00 in0.0 mm 0.00 in/hr0.0 mm/hr 0.00 in0.0 mm
05:45 PM 63.2°F17.3°C 33.6°F0.9°C 33% 2.5 mph WNW4.0 kmh WNW 3.0 mph4.8 kmh 29.86 in1011.2 mb 0.00 in0.0 mm 0.00 in/hr0.0 mm/hr 0.00 in0.0 mm
05:30 PM 64.2°F17.9°C 33.7°F0.9°C 32% 2.1 mph NW3.4 kmh NW 5.2 mph8.4 kmh 29.86 in1011.2 mb 0.00 in0.0 mm 0.00 in/hr0.0 mm/hr 0.00 in0.0 mm
05:15 PM 65.3°F18.5°C 35.4°F1.9°C 33% 2.0 mph NW3.2 kmh NW 5.2 mph8.4 kmh 29.86 in1011.2 mb 0.00 in0.0 mm 0.00 in/hr0.0 mm/hr 0.00 in0.0 mm
05:00 PM 65.9°F18.8°C 34.4°F1.3°C 31% 2.3 mph W3.7 kmh W 4.5 mph7.2 kmh 29.85 in1010.8 mb 0.00 in0.0 mm 0.00 in/hr0.0 mm/hr 0.00 in0.0 mm
04:45 PM 66.7°F19.3°C 32.5°F0.3°C 28% 3.6 mph WNW5.8 kmh WNW 6.8 mph10.9 kmh 29.85 in1010.8 mb 0.00 in0.0 mm 0.00 in/hr0.0 mm/hr 0.00 in0.0 mm
04:30 PM 66.8°F19.3°C 31.7°F-0.2°C 27% 3.7 mph N6.0 kmh N 6.0 mph9.7 kmh 29.85 in1010.8 mb 0.00 in0.0 mm 0.00 in/hr0.0 mm/hr 0.00 in0.0 mm
04:15 PM 67.4°F19.7°C 33.1°F0.6°C 28% 3.8 mph NW6.1 kmh NW 7.5 mph12.1 kmh 29.85 in1010.8 mb 0.00 in0.0 mm 0.00 in/hr0.0 mm/hr 0.00 in0.0 mm
04:00 PM 67.8°F19.9°C 34.4°F1.3°C 29% 3.8 mph NW6.1 kmh NW 8.2 mph13.2 kmh 29.86 in1011.2 mb 0.00 in0.0 mm 0.00 in/hr0.0 mm/hr 0.00 in0.0 mm
03:45 PM 68.0°F20.0°C 33.7°F0.9°C 28% 4.5 mph WNW7.2 kmh WNW 8.2 mph13.2 kmh 29.86 in1011.2 mb 0.00 in0.0 mm 0.00 in/hr0.0 mm/hr 0.00 in0.0 mm
03:30 PM 68.2°F20.1°C 35.6°F2.0°C 30% 3.6 mph NW5.8 kmh NW 5.2 mph8.4 kmh 29.85 in1010.8 mb 0.00 in0.0 mm 0.00 in/hr0.0 mm/hr 0.00 in0.0 mm
03:15 PM 68.5°F20.3°C 35.0°F1.7°C 29% 4.2 mph NW6.8 kmh NW 6.8 mph10.9 kmh 29.86 in1011.2 mb 0.00 in0.0 mm 0.00 in/hr0.0 mm/hr 0.00 in0.0 mm
03:00 PM 68.6°F20.3°C 36.7°F2.6°C 31% 4.2 mph NW6.8 kmh NW 6.8 mph10.9 kmh 29.86 in1011.2 mb 0.00 in0.0 mm 0.00 in/hr0.0 mm/hr 0.00 in0.0 mm
02:45 PM 68.9°F20.5°C 38.6°F3.7°C 33% 4.4 mph W7.1 kmh W 6.0 mph9.7 kmh 29.86 in1011.2 mb 0.00 in0.0 mm 0.00 in/hr0.0 mm/hr 0.00 in0.0 mm
02:30 PM 68.9°F20.5°C 38.6°F3.7°C 33% 3.4 mph NW5.5 kmh NW 6.8 mph10.9 kmh 29.86 in1011.2 mb 0.00 in0.0 mm 0.00 in/hr0.0 mm/hr 0.00 in0.0 mm
02:15 PM 69.1°F20.6°C 41.0°F5.0°C 36% 2.8 mph NW4.5 kmh NW 6.8 mph10.9 kmh 29.86 in1011.2 mb 0.00 in0.0 mm 0.00 in/hr0.0 mm/hr 0.00 in0.0 mm
02:00 PM 69.4°F20.8°C 39.8°F4.3°C 34% 4.2 mph NW6.8 kmh NW 6.0 mph9.7 kmh 29.86 in1011.2 mb 0.00 in0.0 mm 0.00 in/hr0.0 mm/hr 0.00 in0.0 mm
01:45 PM 69.1°F20.6°C 39.5°F4.2°C 34% 3.8 mph W6.1 kmh W 6.0 mph9.7 kmh 29.86 in1011.2 mb 0.00 in0.0 mm 0.00 in/hr0.0 mm/hr 0.00 in0.0 mm
01:30 PM 68.9°F20.5°C 42.9°F6.1°C 39% 3.2 mph NW5.1 kmh NW 4.5 mph7.2 kmh 29.86 in1011.2 mb 0.00 in0.0 mm 0.00 in/hr0.0 mm/hr 0.00 in0.0 mm
01:15 PM 68.7°F20.4°C 42.0°F5.6°C 38% 2.4 mph WNW3.9 kmh WNW 4.5 mph7.2 kmh 29.87 in1011.5 mb 0.00 in0.0 mm 0.00 in/hr0.0 mm/hr 0.00 in0.0 mm
01:00 PM 68.4°F20.2°C 44.4°F6.9°C 42% 2.8 mph NW4.5 kmh NW 3.7 mph6.0 kmh 29.87 in1011.5 mb 0.00 in0.0 mm 0.00 in/hr0.0 mm/hr 0.00 in0.0 mm
12:45 PM 68.1°F20.1°C 44.1°F6.7°C 42% 3.3 mph NW5.3 kmh NW 3.0 mph4.8 kmh 29.88 in1011.9 mb 0.00 in0.0 mm 0.00 in/hr0.0 mm/hr 0.00 in0.0 mm
12:30 PM 67.2°F19.6°C 42.7°F5.9°C 41% 3.0 mph NW4.8 kmh NW 5.2 mph8.4 kmh 29.88 in1011.9 mb 0.00 in0.0 mm 0.00 in/hr0.0 mm/hr 0.00 in0.0 mm
12:15 PM 67.2°F19.6°C 43.9°F6.6°C 43% 3.6 mph NW5.8 kmh NW 5.2 mph8.4 kmh 29.89 in1012.2 mb 0.00 in0.0 mm 0.00 in/hr0.0 mm/hr 0.00 in0.0 mm
12:00 PM 67.0°F19.4°C 45.5°F7.5°C 46% 2.2 mph NNW3.5 kmh NNW 3.7 mph6.0 kmh 29.89 in1012.2 mb 0.00 in0.0 mm 0.00 in/hr0.0 mm/hr 0.00 in0.0 mm
11:45 AM 66.1°F18.9°C 46.9°F8.3°C 50% 2.5 mph NW4.0 kmh NW 3.0 mph4.8 kmh 29.89 in1012.2 mb 0.00 in0.0 mm 0.00 in/hr0.0 mm/hr 0.00 in0.0 mm
11:30 AM 65.8°F18.8°C 47.2°F8.4°C 51% 4.3 mph NW6.9 kmh NW 6.0 mph9.7 kmh 29.90 in1012.5 mb 0.00 in0.0 mm 0.00 in/hr0.0 mm/hr 0.00 in0.0 mm
11:15 AM 65.4°F18.6°C 49.3°F9.6°C 56% 2.6 mph NW4.2 kmh NW 5.2 mph8.4 kmh 29.90 in1012.5 mb 0.00 in0.0 mm 0.00 in/hr0.0 mm/hr 0.00 in0.0 mm
11:00 AM 64.7°F18.2°C 50.5°F10.3°C 60% 1.6 mph WNW2.6 kmh WNW 1.5 mph2.4 kmh 29.90 in1012.5 mb 0.00 in0.0 mm 0.00 in/hr0.0 mm/hr 0.00 in0.0 mm
10:45 AM 64.3°F17.9°C 50.1°F10.1°C 60% 2.9 mph NNW4.7 kmh NNW 6.8 mph10.9 kmh 29.90 in1012.5 mb 0.00 in0.0 mm 0.00 in/hr0.0 mm/hr 0.00 in0.0 mm
10:30 AM 63.6°F17.6°C 51.2°F10.7°C 64% 3.0 mph NW4.8 kmh NW 4.5 mph7.2 kmh 29.91 in1012.9 mb 0.00 in0.0 mm 0.00 in/hr0.0 mm/hr 0.00 in0.0 mm
10:15 AM 62.7°F17.1°C 52.8°F11.6°C 70% 2.1 mph NW3.4 kmh NW 3.0 mph4.8 kmh 29.90 in1012.5 mb 0.00 in0.0 mm 0.00 in/hr0.0 mm/hr 0.00 in0.0 mm
10:00 AM 61.6°F16.4°C 53.6°F12.0°C 75% 1.8 mph NW2.9 kmh NW 3.7 mph6.0 kmh 29.89 in1012.2 mb 0.00 in0.0 mm 0.00 in/hr0.0 mm/hr 0.00 in0.0 mm
09:45 AM 60.6°F15.9°C 54.1°F12.3°C 79% 2.2 mph NW3.5 kmh NW 3.7 mph6.0 kmh 29.89 in1012.2 mb 0.00 in0.0 mm 0.00 in/hr0.0 mm/hr 0.00 in0.0 mm
09:30 AM 59.8°F15.4°C 54.3°F12.4°C 82% 2.4 mph NNW3.9 kmh NNW 3.0 mph4.8 kmh 29.89 in1012.2 mb 0.00 in0.0 mm 0.00 in/hr0.0 mm/hr 0.00 in0.0 mm
09:15 AM 58.8°F14.9°C 54.6°F12.6°C 86% 1.6 mph NW2.6 kmh NW 3.0 mph4.8 kmh 29.88 in1011.9 mb 0.00 in0.0 mm 0.00 in/hr0.0 mm/hr 0.00 in0.0 mm
09:00 AM 57.8°F14.3°C 54.6°F12.6°C 89% 1.5 mph NW2.4 kmh NW 3.7 mph6.0 kmh 29.88 in1011.9 mb 0.00 in0.0 mm 0.00 in/hr0.0 mm/hr 0.00 in0.0 mm
08:45 AM 56.8°F13.8°C 54.5°F12.5°C 92% 1.2 mph NW1.9 kmh NW 1.5 mph2.4 kmh 29.88 in1011.9 mb 0.00 in0.0 mm 0.00 in/hr0.0 mm/hr 0.00 in0.0 mm
08:30 AM 55.6°F13.1°C 53.9°F12.2°C 94% 1.8 mph NW2.9 kmh NW 3.0 mph4.8 kmh 29.87 in1011.5 mb 0.00 in0.0 mm 0.00 in/hr0.0 mm/hr 0.00 in0.0 mm
08:15 AM 54.5°F12.5°C 53.3°F11.8°C 96% 1.6 mph NW2.6 kmh NW 2.3 mph3.7 kmh 29.87 in1011.5 mb 0.00 in0.0 mm 0.00 in/hr0.0 mm/hr 0.00 in0.0 mm
08:00 AM 53.7°F12.1°C 52.9°F11.6°C 97% 1.5 mph WNW2.4 kmh WNW 2.3 mph3.7 kmh 29.87 in1011.5 mb 0.00 in0.0 mm 0.00 in/hr0.0 mm/hr 0.00 in0.0 mm
07:45 AM 53.2°F11.8°C 52.4°F11.3°C 97% 1.0 mph WNW1.6 kmh WNW 1.5 mph2.4 kmh 29.86 in1011.2 mb 0.00 in0.0 mm 0.00 in/hr0.0 mm/hr 0.00 in0.0 mm
07:30 AM 53.1°F11.7°C 52.3°F11.3°C 97% 0.8 mph WSW1.3 kmh WSW 1.5 mph2.4 kmh 29.85 in1010.8 mb 0.00 in0.0 mm 0.00 in/hr0.0 mm/hr 0.00 in0.0 mm
07:15 AM 53.0°F11.7°C 52.2°F11.2°C 97% 1.2 mph W1.9 kmh W 1.5 mph2.4 kmh 29.85 in1010.8 mb 0.00 in0.0 mm 0.00 in/hr0.0 mm/hr 0.00 in0.0 mm
07:00 AM 52.9°F11.6°C 52.1°F11.2°C 97% 0.6 mph W1.0 kmh W 2.3 mph3.7 kmh 29.85 in1010.8 mb 0.00 in0.0 mm 0.00 in/hr0.0 mm/hr 0.00 in0.0 mm
06:45 AM 52.8°F11.6°C 52.0°F11.1°C 97% 0.9 mph WSW1.4 kmh WSW 2.3 mph3.7 kmh 29.84 in1010.5 mb 0.00 in0.0 mm 0.00 in/hr0.0 mm/hr 0.00 in0.0 mm
06:30 AM 52.5°F11.4°C 51.7°F10.9°C 97% 0.7 mph WSW1.1 kmh WSW 1.5 mph2.4 kmh 29.85 in1010.8 mb 0.00 in0.0 mm 0.00 in/hr0.0 mm/hr 0.00 in0.0 mm
06:15 AM 52.9°F11.6°C 51.7°F10.9°C 96% 1.0 mph W1.6 kmh W 1.5 mph2.4 kmh 29.86 in1011.2 mb 0.00 in0.0 mm 0.00 in/hr0.0 mm/hr 0.00 in0.0 mm
06:00 AM 53.3°F11.8°C 52.5°F11.4°C 97% 0.7 mph WSW1.1 kmh WSW 1.5 mph2.4 kmh 29.84 in1010.5 mb 0.00 in0.0 mm 0.00 in/hr0.0 mm/hr 0.00 in0.0 mm
05:45 AM 53.4°F11.9°C 52.6°F11.4°C 97% 0.6 mph WSW1.0 kmh WSW 1.5 mph2.4 kmh 29.85 in1010.8 mb 0.00 in0.0 mm 0.00 in/hr0.0 mm/hr 0.00 in0.0 mm
05:30 AM 53.7°F12.1°C 52.6°F11.4°C 96% 0.8 mph WSW1.3 kmh WSW 2.3 mph3.7 kmh 29.85 in1010.8 mb 0.00 in0.0 mm 0.00 in/hr0.0 mm/hr 0.00 in0.0 mm
05:15 AM 54.0°F12.2°C 52.9°F11.6°C 96% 1.0 mph WSW1.6 kmh WSW 1.5 mph2.4 kmh 29.85 in1010.8 mb 0.00 in0.0 mm 0.00 in/hr0.0 mm/hr 0.00 in0.0 mm
05:00 AM 54.7°F12.6°C 53.3°F11.8°C 95% 1.1 mph W1.8 kmh W 1.5 mph2.4 kmh 29.84 in1010.5 mb 0.00 in0.0 mm 0.00 in/hr0.0 mm/hr 0.00 in0.0 mm
04:45 AM 55.7°F13.2°C 54.0°F12.2°C 94% 1.5 mph WNW2.4 kmh WNW 2.3 mph3.7 kmh 29.85 in1010.8 mb 0.00 in0.0 mm 0.00 in/hr0.0 mm/hr 0.00 in0.0 mm
04:30 AM 55.8°F13.2°C 54.7°F12.6°C 96% 2.2 mph WNW3.5 kmh WNW 6.0 mph9.7 kmh 29.85 in1010.8 mb 0.00 in0.0 mm 0.00 in/hr0.0 mm/hr 0.00 in0.0 mm
04:15 AM 54.9°F12.7°C 54.1°F12.3°C 97% 2.2 mph WNW3.5 kmh WNW 3.0 mph4.8 kmh 29.84 in1010.5 mb 0.00 in0.0 mm 0.00 in/hr0.0 mm/hr 0.00 in0.0 mm
04:00 AM 53.6°F12.0°C 53.0°F11.7°C 98% 2.0 mph WNW3.2 kmh WNW 3.0 mph4.8 kmh 29.85 in1010.8 mb 0.00 in0.0 mm 0.00 in/hr0.0 mm/hr 0.00 in0.0 mm
03:45 AM 52.0°F11.1°C 50.9°F10.5°C 96% 0.5 mph WSW0.8 kmh WSW 1.5 mph2.4 kmh 29.84 in1010.5 mb 0.00 in0.0 mm 0.00 in/hr0.0 mm/hr 0.00 in0.0 mm
03:30 AM 52.1°F11.2°C 50.7°F10.4°C 95% 1.0 mph W1.6 kmh W 1.5 mph2.4 kmh 29.84 in1010.5 mb 0.00 in0.0 mm 0.00 in/hr0.0 mm/hr 0.00 in0.0 mm
03:15 AM 52.3°F11.3°C 50.6°F10.3°C 94% 0.9 mph WSW1.4 kmh WSW 2.3 mph3.7 kmh 29.84 in1010.5 mb 0.00 in0.0 mm 0.00 in/hr0.0 mm/hr 0.00 in0.0 mm
03:00 AM 52.0°F11.1°C 50.4°F10.2°C 94% 1.1 mph W1.8 kmh W 1.5 mph2.4 kmh 29.85 in1010.8 mb 0.00 in0.0 mm 0.00 in/hr0.0 mm/hr 0.00 in0.0 mm
02:45 AM 52.1°F11.2°C 49.8°F9.9°C 92% 0.6 mph WSW1.0 kmh WSW 0.8 mph1.3 kmh 29.85 in1010.8 mb 0.00 in0.0 mm 0.00 in/hr0.0 mm/hr 0.00 in0.0 mm
02:30 AM 53.0°F11.7°C 50.2°F10.1°C 90% 0.6 mph WSW1.0 kmh WSW 1.5 mph2.4 kmh 29.85 in1010.8 mb 0.00 in0.0 mm 0.00 in/hr0.0 mm/hr 0.00 in0.0 mm
02:15 AM 53.6°F12.0°C 50.4°F10.2°C 89% 1.0 mph WSW1.6 kmh WSW 2.3 mph3.7 kmh 29.84 in1010.5 mb 0.00 in0.0 mm 0.00 in/hr0.0 mm/hr 0.00 in0.0 mm
02:00 AM 53.7°F12.1°C 50.2°F10.1°C 88% 0.8 mph WSW1.3 kmh WSW 1.5 mph2.4 kmh 29.84 in1010.5 mb 0.00 in0.0 mm 0.00 in/hr0.0 mm/hr 0.00 in0.0 mm
01:45 AM 54.2°F12.3°C 50.4°F10.2°C 87% 0.6 mph WSW1.0 kmh WSW 1.5 mph2.4 kmh 29.84 in1010.5 mb 0.00 in0.0 mm 0.00 in/hr0.0 mm/hr 0.00 in0.0 mm
01:30 AM 54.8°F12.7°C 50.4°F10.2°C 85% 0.9 mph WSW1.4 kmh WSW 1.5 mph2.4 kmh 29.85 in1010.8 mb 0.00 in0.0 mm 0.00 in/hr0.0 mm/hr 0.00 in0.0 mm
01:15 AM 55.3°F12.9°C 50.5°F10.3°C 84% 1.0 mph SW1.6 kmh SW 2.3 mph3.7 kmh 29.85 in1010.8 mb 0.00 in0.0 mm 0.00 in/hr0.0 mm/hr 0.00 in0.0 mm
01:00 AM 56.0°F13.3°C 50.9°F10.5°C 83% 0.9 mph WSW1.4 kmh WSW 0.8 mph1.3 kmh 29.85 in1010.8 mb 0.00 in0.0 mm 0.00 in/hr0.0 mm/hr 0.00 in0.0 mm
12:45 AM 56.1°F13.4°C 51.0°F10.6°C 83% 0.6 mph WSW1.0 kmh WSW 1.5 mph2.4 kmh 29.86 in1011.2 mb 0.00 in0.0 mm 0.00 in/hr0.0 mm/hr 0.00 in0.0 mm
12:30 AM 56.0°F13.3°C 51.2°F10.7°C 84% 1.0 mph SW1.6 kmh SW 1.5 mph2.4 kmh 29.86 in1011.2 mb 0.00 in0.0 mm 0.00 in/hr0.0 mm/hr 0.00 in0.0 mm
12:15 AM 55.4°F13.0°C 51.3°F10.7°C 86% 1.2 mph WSW1.9 kmh WSW 2.3 mph3.7 kmh 29.86 in1011.2 mb 0.00 in0.0 mm 0.00 in/hr0.0 mm/hr 0.00 in0.0 mm
12:00 AM 55.0°F12.8°C 51.8°F11.0°C 89% Calm Calm -- 29.87 in1011.5 mb 0.00 in0.0 mm 0.00 in/hr0.0 mm/hr 0.00 in0.0 mm